Time;durP1;ratioP1;P1;durP2;ratioP2;P2;SDS_P1;SDS_P2;PMS_P1;PMS_P2;Temp;Humidity;BMP_temperature;BMP_pressure;BME280_temperature;BME280_humidity;BME280_pressure;Samples;Min_cycle;Max_cycle;Signal;HPM_P1;HPM_P2
2022/02/14 00:00:16;;;;;;;7.00;2.00;;;;;;;;;;6145491;23;20013;-59
2022/02/14 00:02:42;;;;;;;5.25;0.95;;;;;;;;;;6146570;23;20017;-59
2022/02/14 00:05:08;;;;;;;3.03;1.20;;;;;;;;;;6147155;23;20040;-59
2022/02/14 00:07:34;;;;;;;1.83;1.05;;;;;;;;;;6120084;23;20013;-59
2022/02/14 00:09:59;;;;;;;4.90;1.35;;;;;;;;;;6146495;23;20368;-60
2022/02/14 00:12:25;;;;;;;7.15;1.17;;;;;;;;;;6147030;23;20006;-59
2022/02/14 00:14:51;;;;;;;2.72;1.10;;;;;;;;;;6146394;23;20082;-59
2022/02/14 00:17:16;;;;;;;4.75;0.90;;;;;;;;;;6147132;23;20001;-59
2022/02/14 00:19:42;;;;;;;4.78;1.02;;;;;;;;;;6147477;23;20013;-59
2022/02/14 00:22:07;;;;;;;2.28;1.20;;;;;;;;;;6146805;23;20487;-59
2022/02/14 00:24:33;;;;;;;3.95;1.48;;;;;;;;;;6146944;23;20057;-59
2022/02/14 00:26:58;;;;;;;3.58;1.60;;;;;;;;;;6146997;23;20056;-59
2022/02/14 00:29:24;;;;;;;2.40;1.38;;;;;;;;;;6147049;23;20382;-59
2022/02/14 00:31:50;;;;;;;3.55;1.65;;;;;;;;;;6147655;23;20353;-59
2022/02/14 00:34:16;;;;;;;5.20;1.73;;;;;;;;;;6147288;23;20445;-59
2022/02/14 00:36:42;;;;;;;7.32;2.30;;;;;;;;;;6148999;23;20005;-58
2022/02/14 00:39:09;;;;;;;3.80;1.67;;;;;;;;;;6148089;23;20521;-59
2022/02/14 00:41:34;;;;;;;6.68;2.13;;;;;;;;;;6122459;23;20005;-59
2022/02/14 00:44:00;;;;;;;3.13;1.73;;;;;;;;;;6148253;23;20005;-60
2022/02/14 00:46:26;;;;;;;5.13;2.03;;;;;;;;;;6147481;23;20009;-60
2022/02/14 00:48:51;;;;;;;5.32;2.22;;;;;;;;;;6148263;23;20009;-59
2022/02/14 00:51:17;;;;;;;9.90;2.75;;;;;;;;;;6148394;23;20020;-60
2022/02/14 00:53:42;;;;;;;3.38;2.28;;;;;;;;;;6146245;23;20060;-60
2022/02/14 00:56:08;;;;;;;5.72;2.42;;;;;;;;;;6148462;23;20005;-60
2022/02/14 00:58:33;;;;;;;7.50;2.15;;;;;;;;;;6148249;23;20009;-60
2022/02/14 01:00:59;;;;;;;9.32;2.17;;;;;;;;;;6148314;23;20010;-60
2022/02/14 01:03:24;;;;;;;3.88;1.95;;;;;;;;;;6148204;23;20404;-60
2022/02/14 01:05:50;;;;;;;8.10;2.60;;;;;;;;;;6148254;23;20326;-60
2022/02/14 01:08:15;;;;;;;4.13;2.28;;;;;;;;;;6148123;23;20437;-60
2022/02/14 01:10:41;;;;;;;7.78;2.00;;;;;;;;;;6147917;23;20088;-60
2022/02/14 01:13:07;;;;;;;5.78;1.83;;;;;;;;;;6148305;23;20394;-60
2022/02/14 01:15:32;;;;;;;5.57;2.70;;;;;;;;;;6148091;23;20437;-60
2022/02/14 01:17:58;;;;;;;3.88;2.15;;;;;;;;;;6119918;23;20009;-61
2022/02/14 01:20:23;;;;;;;2.83;2.00;;;;;;;;;;6148205;23;20010;-60
2022/02/14 01:22:49;;;;;;;6.35;3.30;;;;;;;;;;6148067;23;20497;-60
2022/02/14 01:25:14;;;;;;;6.72;3.08;;;;;;;;;;6147995;23;20437;-60
2022/02/14 01:27:41;;;;;;;4.60;2.05;;;;;;;;;;6096894;23;20037;-60
2022/02/14 01:30:08;;;;;;;4.47;2.22;;;;;;;;;;6148154;23;20012;-60
2022/02/14 01:32:35;;;;;;;7.28;3.03;;;;;;;;;;6146275;23;20009;-60
2022/02/14 01:35:01;;;;;;;8.75;3.70;;;;;;;;;;6147249;23;20005;-60
2022/02/14 01:37:27;;;;;;;8.52;2.85;;;;;;;;;;6149594;23;20377;-60
2022/02/14 01:39:52;;;;;;;2.45;1.80;;;;;;;;;;6147723;23;20009;-60
2022/02/14 01:42:17;;;;;;;5.65;3.38;;;;;;;;;;6147757;23;20009;-60
2022/02/14 01:44:46;;;;;;;4.38;2.05;;;;;;;;;;6119782;23;20437;-60
2022/02/14 01:47:16;;;;;;;3.83;2.28;;;;;;;;;;6147203;23;20033;-59
2022/02/14 01:49:44;;;;;;;6.22;3.53;;;;;;;;;;6147698;23;20009;-61
2022/02/14 01:52:10;;;;;;;8.38;2.78;;;;;;;;;;6146345;23;20018;-60
2022/02/14 01:54:38;;;;;;;5.65;2.53;;;;;;;;;;6122078;23;20014;-60
2022/02/14 01:57:05;;;;;;;5.18;2.42;;;;;;;;;;6147687;23;20433;-59
2022/02/14 01:59:31;;;;;;;10.02;3.55;;;;;;;;;;6147684;23;20060;-60
2022/02/14 02:01:57;;;;;;;6.90;2.83;;;;;;;;;;6147152;23;20107;-60
2022/02/14 02:04:22;;;;;;;4.95;1.75;;;;;;;;;;6148434;23;20452;-60
2022/02/14 02:06:48;;;;;;;4.88;1.98;;;;;;;;;;6148176;23;20020;-60
2022/02/14 02:09:14;;;;;;;9.52;5.13;;;;;;;;;;6147348;23;20089;-60
2022/02/14 02:14:24;;;;;;;1.98;1.55;;;;;;;;;;6125016;23;20618;-60
2022/02/14 02:16:50;;;;;;;11.38;2.53;;;;;;;;;;6119534;23;20013;-60
2022/02/14 02:19:16;;;;;;;3.42;2.60;;;;;;;;;;6147607;23;20445;-60
2022/02/14 02:21:46;;;;;;;6.15;2.85;;;;;;;;;;6148883;23;20273;-60
2022/02/14 02:24:19;;;;;;;5.70;2.75;;;;;;;;;;6147567;23;20009;-60
2022/02/14 02:26:57;;;;;;;4.35;2.55;;;;;;;;;;6147439;23;20005;-60
2022/02/14 02:29:23;;;;;;;5.13;2.33;;;;;;;;;;6147654;23;20026;-60
2022/02/14 02:31:49;;;;;;;3.67;2.03;;;;;;;;;;6148341;23;20439;-60
2022/02/14 02:34:14;;;;;;;7.22;2.67;;;;;;;;;;6147909;23;20017;-60
2022/02/14 02:36:50;;;;;;;3.60;1.70;;;;;;;;;;6148443;23;20010;-60
2022/02/14 02:39:16;;;;;;;3.47;1.75;;;;;;;;;;6146890;23;20461;-60
2022/02/14 02:41:42;;;;;;;5.93;1.85;;;;;;;;;;6147822;23;20036;-61
2022/02/14 02:44:08;;;;;;;3.70;1.38;;;;;;;;;;6146751;23;20076;-59
2022/02/14 02:46:33;;;;;;;3.60;1.48;;;;;;;;;;6147783;23;20491;-61
2022/02/14 02:49:10;;;;;;;4.68;0.95;;;;;;;;;;6146597;23;20013;-60
2022/02/14 02:51:37;;;;;;;4.78;1.23;;;;;;;;;;6147167;23;20035;-60
2022/02/14 02:54:03;;;;;;;1.27;0.68;;;;;;;;;;6144977;23;20353;-59
2022/02/14 02:56:29;;;;;;;1.77;0.98;;;;;;;;;;6147676;23;20009;-59
2022/02/14 02:58:54;;;;;;;2.38;0.85;;;;;;;;;;6147609;23;20094;-60
2022/02/14 03:01:20;;;;;;;1.15;0.75;;;;;;;;;;6146869;23;20100;-60
2022/02/14 03:03:45;;;;;;;3.22;1.02;;;;;;;;;;6146933;23;20460;-60
2022/02/14 03:06:11;;;;;;;1.40;0.65;;;;;;;;;;6146800;23;20010;-60
2022/02/14 03:08:36;;;;;;;0.75;0.68;;;;;;;;;;6147618;23;20021;-60
2022/02/14 03:11:02;;;;;;;2.67;0.68;;;;;;;;;;6146844;23;20018;-59
2022/02/14 03:13:27;;;;;;;6.82;0.90;;;;;;;;;;6147269;23;20433;-60
2022/02/14 03:15:53;;;;;;;1.85;0.70;;;;;;;;;;6146676;23;20009;-60
2022/02/14 03:18:18;;;;;;;5.38;0.82;;;;;;;;;;6144929;23;20005;-60
2022/02/14 03:20:44;;;;;;;5.25;1.00;;;;;;;;;;6146136;23;20364;-59
2022/02/14 03:23:09;;;;;;;2.10;1.02;;;;;;;;;;6120154;23;20013;-60
2022/02/14 03:25:35;;;;;;;4.03;1.23;;;;;;;;;;6147707;23;20013;-60
2022/02/14 03:28:00;;;;;;;3.55;1.50;;;;;;;;;;6146827;23;20010;-60
2022/02/14 03:30:26;;;;;;;3.50;2.47;;;;;;;;;;6146400;23;20128;-60
2022/02/14 03:32:51;;;;;;;5.63;1.60;;;;;;;;;;6147559;23;20029;-60
2022/02/14 03:35:17;;;;;;;3.88;0.90;;;;;;;;;;6120546;23;20017;-60
2022/02/14 03:37:42;;;;;;;2.25;0.63;;;;;;;;;;6148066;23;20457;-60
2022/02/14 03:40:08;;;;;;;1.77;1.20;;;;;;;;;;6146570;23;20448;-61
2022/02/14 03:42:34;;;;;;;5.95;1.38;;;;;;;;;;6120565;23;20016;-61
2022/02/14 03:44:59;;;;;;;2.65;1.08;;;;;;;;;;6146816;23;20013;-61
2022/02/14 03:47:25;;;;;;;1.73;1.10;;;;;;;;;;6096412;23;20041;-61
2022/02/14 03:49:50;;;;;;;6.57;1.48;;;;;;;;;;6120359;23;20025;-61
2022/02/14 03:52:16;;;;;;;7.22;1.83;;;;;;;;;;6145481;23;20351;-61
2022/02/14 03:54:41;;;;;;;4.35;1.38;;;;;;;;;;6146962;23;20394;-61
2022/02/14 03:57:07;;;;;;;4.15;1.50;;;;;;;;;;6146829;23;20402;-61
2022/02/14 03:59:32;;;;;;;4.35;1.90;;;;;;;;;;6145332;23;20071;-59
2022/02/14 04:01:58;;;;;;;3.17;2.03;;;;;;;;;;6146801;23;20010;-59
2022/02/14 04:04:23;;;;;;;6.07;1.88;;;;;;;;;;6146632;23;20089;-59
2022/02/14 04:06:49;;;;;;;9.13;2.35;;;;;;;;;;6120846;23;20435;-59
2022/02/14 04:09:14;;;;;;;3.67;1.50;;;;;;;;;;6146734;23;20302;-59
2022/02/14 04:11:40;;;;;;;4.63;2.50;;;;;;;;;;6122388;23;20014;-58
2022/02/14 04:14:05;;;;;;;8.40;2.33;;;;;;;;;;6148085;23;20100;-59
2022/02/14 04:16:31;;;;;;;11.07;2.40;;;;;;;;;;6122682;23;20036;-59
2022/02/14 04:18:56;;;;;;;10.18;2.67;;;;;;;;;;6149212;23;20005;-60
2022/02/14 04:21:22;;;;;;;9.35;3.08;;;;;;;;;;6148885;23;20005;-60
2022/02/14 04:23:47;;;;;;;2.45;1.42;;;;;;;;;;6122521;23;20481;-60
2022/02/14 04:26:13;;;;;;;7.68;2.03;;;;;;;;;;6147375;23;20060;-60
2022/02/14 04:28:38;;;;;;;4.40;1.88;;;;;;;;;;6149482;23;20016;-60
2022/02/14 04:31:04;;;;;;;5.97;1.85;;;;;;;;;;6148557;23;20508;-58
2022/02/14 04:33:29;;;;;;;4.60;1.95;;;;;;;;;;6122508;23;20017;-60
2022/02/14 04:35:54;;;;;;;6.07;2.20;;;;;;;;;;6148115;23;20009;-60
2022/02/14 04:38:20;;;;;;;5.10;1.75;;;;;;;;;;6148220;23;20032;-60
2022/02/14 04:40:45;;;;;;;2.33;1.42;;;;;;;;;;6148142;23;20037;-60
2022/02/14 04:43:11;;;;;;;6.22;1.98;;;;;;;;;;6148931;23;20430;-60
2022/02/14 04:45:36;;;;;;;5.00;1.67;;;;;;;;;;6148047;23;20041;-61
2022/02/14 04:48:02;;;;;;;5.65;1.40;;;;;;;;;;6148404;23;20009;-59
2022/02/14 04:50:28;;;;;;;3.47;1.40;;;;;;;;;;6147456;23;20467;-58
2022/02/14 04:52:54;;;;;;;3.22;1.25;;;;;;;;;;6146882;23;20006;-60
2022/02/14 04:55:19;;;;;;;2.95;1.38;;;;;;;;;;6148002;23;20296;-59
2022/02/14 04:57:45;;;;;;;3.25;2.30;;;;;;;;;;6149168;23;20013;-60
2022/02/14 05:00:13;;;;;;;11.32;2.00;;;;;;;;;;6147033;23;20013;-60
2022/02/14 05:02:39;;;;;;;3.53;1.42;;;;;;;;;;6148802;23;20065;-60
2022/02/14 05:05:05;;;;;;;8.18;2.15;;;;;;;;;;6148751;23;20009;-60
2022/02/14 05:07:31;;;;;;;7.57;1.80;;;;;;;;;;6148552;23;20339;-60
2022/02/14 05:09:56;;;;;;;2.40;1.35;;;;;;;;;;6147274;23;20437;-60
2022/02/14 05:12:22;;;;;;;2.95;1.77;;;;;;;;;;6148544;23;20189;-60
2022/02/14 05:14:47;;;;;;;3.10;1.50;;;;;;;;;;6148153;23;20009;-61
2022/02/14 05:17:15;;;;;;;5.32;1.75;;;;;;;;;;6148170;23;20009;-60
2022/02/14 05:19:41;;;;;;;2.55;1.13;;;;;;;;;;6147928;23;20020;-60
2022/02/14 05:22:07;;;;;;;4.47;1.85;;;;;;;;;;6122219;23;20005;-61
2022/02/14 05:24:32;;;;;;;2.92;1.10;;;;;;;;;;6147962;23;20015;-61
2022/02/14 05:26:58;;;;;;;5.70;1.27;;;;;;;;;;6147694;23;20013;-61
2022/02/14 05:29:24;;;;;;;7.60;1.50;;;;;;;;;;6147458;23;20104;-61
2022/02/14 05:31:50;;;;;;;5.38;1.40;;;;;;;;;;6147875;23;20017;-57
2022/02/14 05:34:15;;;;;;;6.32;1.60;;;;;;;;;;6147569;23;20013;-59
2022/02/14 05:36:41;;;;;;;2.40;0.70;;;;;;;;;;6147904;23;20425;-59
2022/02/14 05:39:08;;;;;;;2.90;1.13;;;;;;;;;;6147659;23;20455;-59
2022/02/14 05:41:33;;;;;;;5.60;1.13;;;;;;;;;;6147458;23;20429;-60
2022/02/14 05:44:01;;;;;;;2.70;1.15;;;;;;;;;;6146728;23;20009;-60
2022/02/14 05:46:28;;;;;;;7.20;0.90;;;;;;;;;;6147827;23;20009;-60
2022/02/14 05:48:54;;;;;;;5.03;1.27;;;;;;;;;;6147605;23;20318;-60
2022/02/14 05:51:19;;;;;;;10.38;1.02;;;;;;;;;;6147516;23;20025;-61
2022/02/14 05:53:45;;;;;;;5.00;1.40;;;;;;;;;;6145968;23;20496;-60
2022/02/14 05:56:11;;;;;;;9.05;1.55;;;;;;;;;;6120736;23;20021;-60
2022/02/14 05:58:36;;;;;;;3.47;0.80;;;;;;;;;;6147817;23;20013;-61
2022/02/14 06:01:02;;;;;;;1.77;0.60;;;;;;;;;;6120974;23;20013;-60
2022/02/14 06:03:28;;;;;;;6.07;1.08;;;;;;;;;;6148378;23;20409;-60
2022/02/14 06:05:53;;;;;;;4.00;1.20;;;;;;;;;;6147393;23;20013;-59
2022/02/14 06:08:19;;;;;;;2.20;0.52;;;;;;;;;;6120723;23;20016;-59
2022/02/14 06:10:44;;;;;;;3.83;1.10;;;;;;;;;;6147757;23;20009;-59
2022/02/14 06:13:10;;;;;;;1.70;0.93;;;;;;;;;;6147499;23;20081;-59
2022/02/14 06:15:35;;;;;;;2.95;0.90;;;;;;;;;;6122587;23;20346;-59
2022/02/14 06:18:01;;;;;;;7.05;1.10;;;;;;;;;;6147091;23;20018;-59
2022/02/14 06:20:26;;;;;;;1.70;0.68;;;;;;;;;;6147945;23;20052;-60
2022/02/14 06:22:52;;;;;;;5.78;1.08;;;;;;;;;;6147694;23;20002;-60
2022/02/14 06:25:17;;;;;;;4.68;0.95;;;;;;;;;;6146333;23;20013;-61
2022/02/14 06:27:43;;;;;;;4.43;0.90;;;;;;;;;;6146697;23;20018;-61
2022/02/14 06:30:09;;;;;;;9.82;1.50;;;;;;;;;;6146176;23;20092;-61
2022/02/14 06:32:37;;;;;;;3.33;1.15;;;;;;;;;;6146251;23;20005;-61
2022/02/14 06:35:04;;;;;;;5.90;1.13;;;;;;;;;;6121180;23;20006;-61
2022/02/14 06:37:29;;;;;;;8.43;2.15;;;;;;;;;;6120862;23;20549;-59
2022/02/14 06:39:55;;;;;;;4.47;0.80;;;;;;;;;;6147036;23;20037;-60
2022/02/14 06:42:21;;;;;;;9.23;1.77;;;;;;;;;;6146739;23;20303;-59
2022/02/14 06:44:46;;;;;;;5.00;1.63;;;;;;;;;;6146746;23;20006;-60
2022/02/14 06:47:12;;;;;;;3.72;0.90;;;;;;;;;;6145284;23;20381;-60
2022/02/14 06:49:38;;;;;;;6.40;0.95;;;;;;;;;;6119541;23;20068;-61
2022/02/14 06:52:04;;;;;;;8.95;1.50;;;;;;;;;;6146495;23;20461;-60
2022/02/14 06:54:29;;;;;;;5.13;1.17;;;;;;;;;;6146729;23;20014;-60
2022/02/14 06:56:55;;;;;;;8.30;1.55;;;;;;;;;;6146740;23;20557;-59
2022/02/14 06:59:21;;;;;;;2.70;0.70;;;;;;;;;;6118731;23;20015;-60
2022/02/14 07:01:46;;;;;;;5.43;1.33;;;;;;;;;;6119002;23;20597;-58
2022/02/14 07:04:12;;;;;;;8.93;1.05;;;;;;;;;;6146573;23;20037;-60
2022/02/14 07:06:37;;;;;;;5.50;1.05;;;;;;;;;;6147026;23;20318;-58
2022/02/14 07:09:03;;;;;;;1.77;0.82;;;;;;;;;;6147739;23;20009;-59
2022/02/14 07:11:29;;;;;;;3.22;1.05;;;;;;;;;;6144355;23;20017;-59
2022/02/14 07:13:54;;;;;;;1.73;1.00;;;;;;;;;;6121671;23;20282;-58
2022/02/14 07:16:20;;;;;;;5.95;0.82;;;;;;;;;;6120418;23;20370;-59
2022/02/14 07:18:45;;;;;;;4.40;0.75;;;;;;;;;;6120410;23;20412;-60
2022/02/14 07:21:11;;;;;;;4.65;1.02;;;;;;;;;;6147295;23;20411;-58
2022/02/14 07:23:36;;;;;;;1.13;0.52;;;;;;;;;;6146574;23;20016;-59
2022/02/14 07:26:02;;;;;;;0.65;0.50;;;;;;;;;;6147541;23;20493;-60
2022/02/14 07:28:27;;;;;;;5.57;0.70;;;;;;;;;;6145807;23;20017;-59
2022/02/14 07:30:53;;;;;;;3.28;0.75;;;;;;;;;;6148197;23;20055;-60
2022/02/14 07:33:19;;;;;;;4.43;0.90;;;;;;;;;;6120390;23;20356;-59
2022/02/14 07:35:45;;;;;;;2.40;0.52;;;;;;;;;;6120848;23;20021;-60
2022/02/14 07:38:11;;;;;;;4.97;1.15;;;;;;;;;;6145578;23;20041;-60
2022/02/14 07:40:36;;;;;;;13.75;0.95;;;;;;;;;;6145479;23;20013;-60
2022/02/14 07:43:02;;;;;;;4.82;0.88;;;;;;;;;;6147363;23;20116;-60
2022/02/14 07:45:28;;;;;;;6.03;0.82;;;;;;;;;;6148977;23;20013;-60
2022/02/14 07:47:54;;;;;;;4.18;1.08;;;;;;;;;;6147388;23;20345;-60
2022/02/14 07:50:20;;;;;;;2.03;0.88;;;;;;;;;;6148713;23;20010;-60
2022/02/14 07:52:45;;;;;;;1.08;0.63;;;;;;;;;;6121658;23;20024;-60
2022/02/14 07:55:11;;;;;;;7.13;0.55;;;;;;;;;;6149321;23;20009;-60
2022/02/14 07:57:36;;;;;;;8.82;1.08;;;;;;;;;;6148547;23;20294;-60
2022/02/14 08:00:04;;;;;;;10.45;1.00;;;;;;;;;;6148722;23;20044;-60
2022/02/14 08:02:29;;;;;;;4.55;0.90;;;;;;;;;;6121785;23;20449;-60
2022/02/14 08:04:55;;;;;;;6.45;1.55;;;;;;;;;;6122145;23;20013;-60
2022/02/14 08:07:21;;;;;;;0.93;0.50;;;;;;;;;;6148855;23;20040;-59
2022/02/14 08:09:46;;;;;;;5.50;1.25;;;;;;;;;;6147734;23;20056;-60
2022/02/14 08:12:12;;;;;;;4.63;0.75;;;;;;;;;;6147949;23;20005;-60
2022/02/14 08:14:39;;;;;;;4.95;1.15;;;;;;;;;;6148452;23;20013;-59
2022/02/14 08:17:06;;;;;;;6.90;1.00;;;;;;;;;;6148362;23;20539;-59
2022/02/14 08:19:35;;;;;;;7.15;1.10;;;;;;;;;;6149608;23;20016;-59
2022/02/14 08:22:01;;;;;;;7.97;0.85;;;;;;;;;;6149593;23;20020;-59
2022/02/14 08:24:26;;;;;;;9.25;0.82;;;;;;;;;;6148249;23;20013;-59
2022/02/14 08:26:52;;;;;;;1.17;0.45;;;;;;;;;;6122796;23;20025;-59
2022/02/14 08:29:18;;;;;;;2.10;0.73;;;;;;;;;;6148278;23;20037;-59
2022/02/14 08:31:45;;;;;;;8.75;1.60;;;;;;;;;;6149216;23;20009;-59
2022/02/14 08:34:10;;;;;;;15.15;1.10;;;;;;;;;;6149502;23;20017;-59
2022/02/14 08:36:36;;;;;;;9.32;0.80;;;;;;;;;;6150099;23;20032;-59
2022/02/14 08:39:02;;;;;;;3.58;0.63;;;;;;;;;;6148160;23;20009;-59
2022/02/14 08:41:28;;;;;;;2.60;0.60;;;;;;;;;;6148948;23;20021;-59
2022/02/14 08:43:53;;;;;;;8.32;0.90;;;;;;;;;;6122574;23;20437;-59
2022/02/14 08:46:20;;;;;;;13.60;1.35;;;;;;;;;;6148447;23;20010;-59
2022/02/14 08:48:49;;;;;;;1.50;0.47;;;;;;;;;;6148368;23;20009;-60
2022/02/14 08:51:17;;;;;;;4.32;0.95;;;;;;;;;;6148863;23;20108;-59
2022/02/14 08:53:43;;;;;;;3.83;0.65;;;;;;;;;;6146670;23;20040;-60
2022/02/14 08:56:10;;;;;;;1.88;0.70;;;;;;;;;;6148113;23;20006;-60
2022/02/14 08:58:36;;;;;;;2.85;0.70;;;;;;;;;;6148970;23;20010;-60
2022/02/14 09:01:03;;;;;;;12.13;1.15;;;;;;;;;;6148295;23;20001;-59
2022/02/14 09:03:29;;;;;;;6.57;1.08;;;;;;;;;;6148250;23;20009;-60
2022/02/14 09:05:54;;;;;;;2.33;0.70;;;;;;;;;;6149157;23;20349;-60
2022/02/14 09:08:22;;;;;;;3.88;0.75;;;;;;;;;;6148256;23;20413;-59
2022/02/14 09:10:48;;;;;;;3.10;0.40;;;;;;;;;;6149239;23;20054;-59
2022/02/14 09:13:13;;;;;;;2.25;0.80;;;;;;;;;;6148078;23;20008;-59
2022/02/14 09:15:39;;;;;;;4.35;0.60;;;;;;;;;;6148402;23;20009;-59
2022/02/14 09:18:05;;;;;;;9.50;1.38;;;;;;;;;;6148067;23;20445;-60
2022/02/14 09:20:31;;;;;;;4.55;0.70;;;;;;;;;;6147848;23;20012;-59
2022/02/14 09:22:56;;;;;;;3.08;0.93;;;;;;;;;;6148937;23;20233;-60
2022/02/14 09:25:23;;;;;;;6.15;1.10;;;;;;;;;;6147815;23;20080;-60
2022/02/14 09:27:49;;;;;;;5.53;1.00;;;;;;;;;;6122298;23;20054;-60
2022/02/14 09:30:16;;;;;;;2.50;0.90;;;;;;;;;;6147815;23;20005;-59
2022/02/14 09:32:41;;;;;;;10.15;1.30;;;;;;;;;;6147860;23;20372;-60
2022/02/14 09:35:07;;;;;;;6.60;1.02;;;;;;;;;;6148851;23;20016;-60
2022/02/14 09:37:33;;;;;;;9.00;0.82;;;;;;;;;;6147927;23;20401;-60
2022/02/14 09:39:59;;;;;;;12.60;1.95;;;;;;;;;;6148136;23;20029;-59
2022/02/14 09:42:25;;;;;;;8.95;0.60;;;;;;;;;;6146366;23;20104;-59
2022/02/14 09:44:51;;;;;;;6.43;1.13;;;;;;;;;;6147192;23;20036;-60
2022/02/14 09:47:17;;;;;;;8.40;0.95;;;;;;;;;;6121268;23;20005;-60
2022/02/14 09:49:43;;;;;;;8.57;0.80;;;;;;;;;;6148338;23;20009;-60
2022/02/14 09:52:10;;;;;;;8.00;1.05;;;;;;;;;;6120872;23;20361;-60
2022/02/14 09:54:36;;;;;;;6.05;0.80;;;;;;;;;;6147186;23;20009;-59
2022/02/14 09:57:03;;;;;;;9.57;0.80;;;;;;;;;;6122119;23;20140;-60
2022/02/14 09:59:29;;;;;;;9.05;1.27;;;;;;;;;;6147681;23;20013;-59
2022/02/14 10:01:55;;;;;;;7.63;1.20;;;;;;;;;;6147578;23;20009;-59
2022/02/14 10:04:22;;;;;;;8.75;1.15;;;;;;;;;;6146058;23;20096;-60
2022/02/14 10:06:49;;;;;;;11.05;1.25;;;;;;;;;;6146569;23;20080;-60
2022/02/14 10:09:25;;;;;;;7.88;1.23;;;;;;;;;;6146230;23;20013;-59
2022/02/14 10:12:11;;;;;;;3.42;0.70;;;;;;;;;;6146149;23;20395;-59
2022/02/14 10:14:38;;;;;;;8.13;1.33;;;;;;;;;;6147756;23;20440;-59
2022/02/14 10:17:04;;;;;;;3.00;0.70;;;;;;;;;;6147911;23;20031;-58
2022/02/14 10:19:31;;;;;;;4.68;0.90;;;;;;;;;;6147107;23;20436;-59
2022/02/14 10:21:58;;;;;;;14.00;1.38;;;;;;;;;;6148291;23;20006;-60
2022/02/14 10:24:24;;;;;;;10.38;0.98;;;;;;;;;;6146768;23;20009;-60
2022/02/14 10:26:52;;;;;;;2.63;0.60;;;;;;;;;;6146452;23;20005;-59
2022/02/14 10:29:24;;;;;;;4.15;0.77;;;;;;;;;;6148214;23;20032;-60
2022/02/14 10:31:51;;;;;;;21.48;1.13;;;;;;;;;;6147508;23;20107;-59
2022/02/14 10:34:19;;;;;;;5.63;0.70;;;;;;;;;;6147579;23;20049;-59
2022/02/14 10:36:47;;;;;;;8.77;1.33;;;;;;;;;;6147924;23;20011;-59
2022/02/14 10:39:22;;;;;;;4.57;1.13;;;;;;;;;;6146032;23;20005;-59
2022/02/14 10:42:17;;;;;;;7.60;1.05;;;;;;;;;;6147149;23;20345;-60
2022/02/14 10:47:35;;;;;;;7.95;1.40;;;;;;;;;;6146511;23;20071;-60
2022/02/14 10:50:11;;;;;;;7.70;0.93;;;;;;;;;;6146314;23;20095;-60
2022/02/14 10:52:55;;;;;;;8.43;1.10;;;;;;;;;;6145103;23;20010;-60
2022/02/14 10:55:37;;;;;;;8.68;0.52;;;;;;;;;;6146908;23;20013;-60
2022/02/14 10:58:03;;;;;;;5.35;0.85;;;;;;;;;;6147075;23;20005;-60
2022/02/14 11:00:34;;;;;;;11.85;1.33;;;;;;;;;;6147179;23;20452;-60
2022/02/14 11:03:06;;;;;;;9.30;1.13;;;;;;;;;;6147874;23;20002;-60
2022/02/14 11:05:34;;;;;;;3.20;0.40;;;;;;;;;;6147216;23;20021;-60
2022/02/14 11:08:01;;;;;;;2.70;0.90;;;;;;;;;;6120109;23;20145;-59
2022/02/14 11:10:27;;;;;;;3.63;1.02;;;;;;;;;;6147758;23;20010;-59
2022/02/14 11:12:57;;;;;;;6.72;1.17;;;;;;;;;;6146527;23;20014;-60
2022/02/14 11:15:25;;;;;;;8.00;0.65;;;;;;;;;;6147146;23;20010;-60
2022/02/14 11:17:54;;;;;;;6.93;0.85;;;;;;;;;;6146823;23;20009;-60
2022/02/14 11:20:20;;;;;;;9.82;1.10;;;;;;;;;;6146820;23;20040;-59
2022/02/14 11:22:48;;;;;;;5.47;1.02;;;;;;;;;;6096795;23;20005;-61
2022/02/14 11:25:32;;;;;;;2.53;0.80;;;;;;;;;;6147213;23;20001;-60
2022/02/14 11:28:16;;;;;;;4.93;1.00;;;;;;;;;;6148080;23;20008;-60
2022/02/14 11:30:49;;;;;;;7.63;0.73;;;;;;;;;;6120971;23;20239;-60
2022/02/14 11:33:22;;;;;;;3.42;0.70;;;;;;;;;;6146580;23;20005;-60
2022/02/14 11:36:07;;;;;;;6.88;1.02;;;;;;;;;;6147752;23;20404;-59
2022/02/14 11:38:45;;;;;;;5.75;0.80;;;;;;;;;;6146439;23;20059;-60
2022/02/14 11:41:30;;;;;;;5.82;0.68;;;;;;;;;;6147240;23;20005;-60
2022/02/14 11:44:23;;;;;;;3.33;0.98;;;;;;;;;;6147801;23;20055;-61
2022/02/14 11:46:54;;;;;;;9.25;0.90;;;;;;;;;;6146371;23;20080;-59
2022/02/14 11:49:22;;;;;;;12.45;1.35;;;;;;;;;;6146827;23;20067;-60
2022/02/14 11:51:54;;;;;;;14.07;1.38;;;;;;;;;;6121230;23;20454;-60
2022/02/14 11:54:34;;;;;;;5.28;1.25;;;;;;;;;;6146511;23;20065;-60
2022/02/14 11:57:23;;;;;;;3.10;0.60;;;;;;;;;;6146651;23;20011;-60
2022/02/14 11:59:50;;;;;;;5.78;1.02;;;;;;;;;;6146980;23;20006;-59
2022/02/14 12:02:26;;;;;;;4.88;1.75;;;;;;;;;;6145384;23;20021;-61
2022/02/14 12:04:52;;;;;;;3.70;1.05;;;;;;;;;;6096557;23;20002;-60
2022/02/14 12:07:32;;;;;;;10.57;1.23;;;;;;;;;;6145091;23;20448;-60
2022/02/14 12:09:58;;;;;;;10.10;1.13;;;;;;;;;;6146031;23;20025;-60
2022/02/14 12:12:39;;;;;;;4.45;0.95;;;;;;;;;;6146498;23;20019;-58
2022/02/14 12:20:38;;;;;;;3.17;0.60;;;;;;;;;;6146646;23;20404;-57
2022/02/14 12:23:05;;;;;;;11.57;1.23;;;;;;;;;;6147168;23;20006;-60
2022/02/14 12:25:31;;;;;;;6.45;0.93;;;;;;;;;;6146818;23;20009;-60
2022/02/14 12:28:00;;;;;;;3.67;1.02;;;;;;;;;;6146826;23;20371;-60
2022/02/14 12:30:26;;;;;;;13.50;0.93;;;;;;;;;;6147778;23;20017;-60
2022/02/14 12:32:57;;;;;;;4.20;0.60;;;;;;;;;;6149106;23;20010;-60
2022/02/14 12:35:30;;;;;;;1.83;0.57;;;;;;;;;;6122529;23;20056;-60
2022/02/14 12:37:56;;;;;;;7.28;0.80;;;;;;;;;;6148304;23;20572;-60
2022/02/14 12:40:22;;;;;;;5.35;1.15;;;;;;;;;;6148136;23;20033;-60
2022/02/14 12:42:48;;;;;;;6.13;0.85;;;;;;;;;;6148883;23;20063;-60
2022/02/14 12:45:15;;;;;;;13.18;1.42;;;;;;;;;;6149219;23;20006;-60
2022/02/14 12:47:42;;;;;;;4.00;0.73;;;;;;;;;;6148287;23;20041;-60
2022/02/14 12:50:16;;;;;;;6.07;1.05;;;;;;;;;;6148592;23;20439;-60
2022/02/14 12:52:44;;;;;;;2.22;0.65;;;;;;;;;;6146046;23;20465;-61
2022/02/14 12:55:10;;;;;;;2.95;0.70;;;;;;;;;;6147700;23;20017;-66
2022/02/14 12:57:48;;;;;;;4.85;0.60;;;;;;;;;;6149183;23;20017;-60
2022/02/14 13:00:38;;;;;;;7.03;0.95;;;;;;;;;;6148315;23;20001;-59
2022/02/14 13:03:10;;;;;;;5.97;0.77;;;;;;;;;;6148024;23;20114;-60
2022/02/14 13:05:37;;;;;;;9.70;1.45;;;;;;;;;;6148005;23;20012;-59
2022/02/14 13:08:25;;;;;;;12.13;1.00;;;;;;;;;;6147613;23;20005;-59
2022/02/14 13:10:52;;;;;;;13.05;1.75;;;;;;;;;;6146266;23;20025;-59
2022/02/14 13:13:29;;;;;;;3.65;0.50;;;;;;;;;;6146070;23;20088;-59
2022/02/14 13:15:59;;;;;;;5.57;0.80;;;;;;;;;;6144997;23;20009;-59
2022/02/14 13:18:46;;;;;;;3.90;0.80;;;;;;;;;;6146593;23;20028;-60
2022/02/14 13:21:16;;;;;;;5.60;1.00;;;;;;;;;;6147698;23;20001;-59
2022/02/14 13:23:42;;;;;;;5.18;0.98;;;;;;;;;;6147553;23;20013;-59
2022/02/14 13:26:21;;;;;;;5.28;0.98;;;;;;;;;;6147096;23;20042;-59
2022/02/14 13:28:47;;;;;;;5.53;0.90;;;;;;;;;;6147427;23;20068;-59
2022/02/14 13:31:25;;;;;;;9.10;1.35;;;;;;;;;;6147450;23;20445;-59
2022/02/14 13:33:52;;;;;;;10.02;1.17;;;;;;;;;;6148405;23;20076;-60
2022/02/14 13:36:18;;;;;;;7.63;1.45;;;;;;;;;;6147484;23;20010;-60
2022/02/14 13:38:45;;;;;;;8.00;1.73;;;;;;;;;;6146322;23;20144;-59
2022/02/14 13:41:11;;;;;;;5.43;0.73;;;;;;;;;;6147889;23;20014;-60
2022/02/14 13:43:40;;;;;;;5.80;1.02;;;;;;;;;;6146185;23;20112;-59
2022/02/14 13:46:07;;;;;;;8.07;1.60;;;;;;;;;;6148496;23;20028;-59
2022/02/14 13:48:47;;;;;;;10.48;1.52;;;;;;;;;;6146697;23;20052;-59
2022/02/14 13:51:22;;;;;;;7.25;1.33;;;;;;;;;;6148227;23;20021;-59
2022/02/14 13:53:54;;;;;;;10.02;1.50;;;;;;;;;;6146887;23;20480;-58
2022/02/14 13:56:20;;;;;;;7.72;1.08;;;;;;;;;;6146565;23;20390;-58
2022/02/14 13:58:52;;;;;;;11.75;1.42;;;;;;;;;;6145938;23;20088;-58
2022/02/14 14:01:30;;;;;;;9.68;1.40;;;;;;;;;;6148419;23;20005;-59
2022/02/14 14:03:58;;;;;;;15.13;2.25;;;;;;;;;;6147328;23;20636;-58
2022/02/14 14:06:38;;;;;;;6.65;1.02;;;;;;;;;;6148819;23;20056;-56
2022/02/14 14:09:17;;;;;;;8.90;0.98;;;;;;;;;;6147534;23;20002;-59
2022/02/14 14:11:44;;;;;;;6.07;1.83;;;;;;;;;;6147744;23;20433;-59
2022/02/14 14:14:28;;;;;;;4.63;1.13;;;;;;;;;;6146649;23;20013;-59
2022/02/14 14:16:53;;;;;;;7.75;1.63;;;;;;;;;;6147280;23;20097;-60
2022/02/14 14:19:19;;;;;;;6.30;1.77;;;;;;;;;;6145861;23;20032;-59
2022/02/14 14:21:44;;;;;;;9.85;1.70;;;;;;;;;;6146308;23;20120;-59
2022/02/14 14:24:10;;;;;;;9.18;1.90;;;;;;;;;;6147115;23;20016;-60
2022/02/14 14:26:35;;;;;;;5.43;1.42;;;;;;;;;;6148186;23;20048;-60
2022/02/14 14:29:01;;;;;;;13.43;2.30;;;;;;;;;;6147578;23;20197;-60
2022/02/14 14:31:26;;;;;;;10.50;1.52;;;;;;;;;;6147857;23;20445;-60
2022/02/14 14:33:52;;;;;;;14.85;1.33;;;;;;;;;;6147932;23;20005;-60
2022/02/14 14:36:18;;;;;;;5.10;1.05;;;;;;;;;;6147459;23;20005;-59
2022/02/14 14:38:44;;;;;;;11.77;1.73;;;;;;;;;;6147960;23;20016;-59
2022/02/14 14:41:10;;;;;;;14.02;1.92;;;;;;;;;;6148030;23;20013;-60
2022/02/14 14:43:35;;;;;;;10.48;1.45;;;;;;;;;;6121780;23;20449;-59
2022/02/14 14:46:01;;;;;;;13.82;1.88;;;;;;;;;;6147471;23;20303;-59
2022/02/14 14:48:27;;;;;;;7.18;0.98;;;;;;;;;;6147530;23;20519;-59
2022/02/14 14:50:52;;;;;;;8.40;1.15;;;;;;;;;;6146796;23;20017;-59
2022/02/14 14:53:18;;;;;;;14.15;1.40;;;;;;;;;;6145525;23;20010;-59